Time;durP1;ratioP1;P1;durP2;ratioP2;P2;SDS_P1;SDS_P2;PMS_P1;PMS_P2;Temp;Humidity;BMP_temperature;BMP_pressure;BME280_temperature;BME280_humidity;BME280_pressure;Samples;Min_cycle;Max_cycle;Signal;HPM_P1;HPM_P2
2022/09/28 00:01:24;;;;;;;1.40;0.60;;;11.20;99.90;;;;;;5092536;28;20163;-73
2022/09/28 00:03:58;;;;;;;1.42;0.50;;;11.20;99.90;;;;;;5091292;28;20171;-73
2022/09/28 00:06:28;;;;;;;1.75;0.60;;;11.20;99.90;;;;;;5091177;28;20236;-73
2022/09/28 00:08:54;;;;;;;1.25;0.50;;;11.20;99.90;;;;;;5092446;28;20171;-73
2022/09/28 00:11:22;;;;;;;1.40;0.75;;;11.20;99.90;;;;;;5091123;28;20168;-74
2022/09/28 00:13:55;;;;;;;1.23;0.50;;;11.20;99.90;;;;;;5092423;28;20167;-74
2022/09/28 00:16:26;;;;;;;1.67;0.52;;;11.20;99.90;;;;;;5094636;28;20191;-74
2022/09/28 00:18:52;;;;;;;1.42;0.50;;;11.20;99.90;;;;;;5092509;28;20318;-74
2022/09/28 00:21:24;;;;;;;1.60;0.50;;;11.30;99.90;;;;;;5092360;28;20682;-74
2022/09/28 00:26:39;;;;;;;1.25;0.60;;;11.20;99.90;;;;;;5092175;28;20241;-74
2022/09/28 00:29:06;;;;;;;2.17;0.65;;;11.30;99.90;;;;;;5073940;28;20218;-74
2022/09/28 00:31:32;;;;;;;1.90;0.60;;;11.30;99.90;;;;;;5090760;28;20179;-74
2022/09/28 00:34:00;;;;;;;1.40;0.60;;;11.30;99.90;;;;;;5092065;28;20178;-74
2022/09/28 00:36:29;;;;;;;1.60;0.57;;;11.30;99.90;;;;;;5090706;28;20183;-74
2022/09/28 00:38:55;;;;;;;1.38;0.60;;;11.30;99.90;;;;;;5091811;28;20193;-74
2022/09/28 00:41:23;;;;;;;1.85;0.55;;;11.30;99.90;;;;;;5091932;28;20180;-74
2022/09/28 00:43:49;;;;;;;3.45;0.70;;;11.30;99.90;;;;;;5091789;28;20281;-74
2022/09/28 00:46:34;;;;;;;1.30;0.60;;;11.30;99.90;;;;;;5091547;28;20203;-74
2022/09/28 00:49:13;;;;;;;1.60;0.50;;;11.30;99.90;;;;;;5090416;28;20168;-75
2022/09/28 00:51:41;;;;;;;1.40;0.50;;;11.40;99.90;;;;;;5090246;28;20270;-74
2022/09/28 00:54:08;;;;;;;1.95;0.60;;;11.40;99.90;;;;;;5094526;28;20543;-74
2022/09/28 00:56:36;;;;;;;2.60;0.57;;;11.40;99.90;;;;;;5090366;28;20597;-74
2022/09/28 00:59:03;;;;;;;1.58;0.60;;;11.40;99.90;;;;;;5091556;28;20651;-74
2022/09/28 01:01:29;;;;;;;1.55;0.70;;;11.40;99.90;;;;;;5091448;28;20179;-73
2022/09/28 01:03:57;;;;;;;2.47;0.60;;;11.40;99.90;;;;;;5091669;28;20172;-73
2022/09/28 01:06:26;;;;;;;2.00;0.60;;;11.50;99.90;;;;;;5093643;28;20617;-74
2022/09/28 01:08:57;;;;;;;1.27;0.50;;;11.50;99.90;;;;;;5095037;28;20191;-76
2022/09/28 01:11:24;;;;;;;2.50;0.80;;;11.50;99.90;;;;;;5094010;28;20189;-74
2022/09/28 01:13:53;;;;;;;1.60;0.60;;;11.50;99.90;;;;;;5094272;28;20195;-75
2022/09/28 01:16:28;;;;;;;3.25;0.70;;;11.50;99.90;;;;;;5094132;28;20748;-75
2022/09/28 01:19:32;;;;;;;1.88;0.68;;;11.40;99.90;;;;;;5094134;28;20202;-75
2022/09/28 01:22:15;;;;;;;2.25;0.70;;;11.40;99.90;;;;;;5093976;28;20174;-75
2022/09/28 01:24:52;;;;;;;1.50;0.60;;;11.40;99.90;;;;;;5094069;28;20595;-76
2022/09/28 01:27:30;;;;;;;1.40;0.60;;;11.40;99.90;;;;;;5093909;28;20198;-76
2022/09/28 01:30:07;;;;;;;2.55;0.60;;;11.40;99.90;;;;;;5097035;28;20172;-76
2022/09/28 01:32:45;;;;;;;2.40;0.75;;;11.40;99.90;;;;;;5095475;28;20164;-75
2022/09/28 01:35:19;;;;;;;2.60;0.68;;;11.40;99.90;;;;;;5093848;28;20615;-76
2022/09/28 01:37:57;;;;;;;1.98;0.80;;;11.40;99.90;;;;;;5093717;28;20554;-76
2022/09/28 01:40:26;;;;;;;2.30;0.60;;;11.40;99.90;;;;;;5094654;28;20172;-76
2022/09/28 01:43:21;;;;;;;1.52;0.70;;;11.30;99.90;;;;;;5093647;28;20255;-76
2022/09/28 01:45:54;;;;;;;2.17;0.80;;;11.30;99.90;;;;;;5062241;28;20218;-75
2022/09/28 01:48:36;;;;;;;1.60;0.90;;;11.30;99.90;;;;;;5076655;28;20224;-75
2022/09/28 01:51:07;;;;;;;2.42;1.42;;;11.30;99.90;;;;;;5093276;28;20302;-75
2022/09/28 01:53:43;;;;;;;1.20;0.60;;;11.30;99.90;;;;;;5094616;28;20547;-76
2022/09/28 01:56:22;;;;;;;1.75;0.70;;;11.30;99.90;;;;;;5093490;28;20192;-76
2022/09/28 01:58:53;;;;;;;2.15;0.80;;;11.30;99.90;;;;;;5094715;28;20175;-76
2022/09/28 02:01:44;;;;;;;1.40;0.70;;;11.30;99.90;;;;;;5093091;28;20187;-76
2022/09/28 02:04:27;;;;;;;1.52;0.88;;;11.30;99.90;;;;;;5093320;28;20528;-76
2022/09/28 02:07:09;;;;;;;2.35;0.77;;;11.30;99.90;;;;;;5095174;28;20195;-76
2022/09/28 02:09:48;;;;;;;3.15;0.68;;;11.30;99.90;;;;;;5076568;28;20168;-76
2022/09/28 02:12:19;;;;;;;1.30;0.60;;;11.40;99.90;;;;;;5092999;28;20559;-76
2022/09/28 02:14:48;;;;;;;2.45;0.77;;;11.40;99.90;;;;;;5093121;28;20176;-76
2022/09/28 02:17:15;;;;;;;1.75;0.80;;;11.40;99.90;;;;;;5092993;28;20580;-76
2022/09/28 02:19:41;;;;;;;2.55;0.88;;;11.40;99.90;;;;;;5092707;28;20164;-76
2022/09/28 02:22:10;;;;;;;1.63;0.90;;;11.40;99.90;;;;;;5092750;28;20164;-76
2022/09/28 02:24:56;;;;;;;2.47;1.02;;;11.40;99.90;;;;;;5094096;28;20199;-76
2022/09/28 02:27:59;;;;;;;2.38;0.80;;;11.40;99.90;;;;;;5092765;28;20188;-76
2022/09/28 02:30:28;;;;;;;1.80;0.90;;;11.40;99.90;;;;;;5092547;28;20176;-76
2022/09/28 02:33:02;;;;;;;4.22;0.90;;;11.40;99.90;;;;;;5092611;28;20171;-76
2022/09/28 02:35:28;;;;;;;2.45;1.08;;;11.50;99.90;;;;;;5092487;28;20528;-76
2022/09/28 02:37:55;;;;;;;1.70;0.90;;;11.50;99.90;;;;;;5075924;28;20540;-76
2022/09/28 02:40:24;;;;;;;6.63;1.30;;;11.50;99.90;;;;;;5092403;28;20180;-76
2022/09/28 02:42:59;;;;;;;2.70;1.45;;;11.50;99.90;;;;;;5075682;28;20183;-76
2022/09/28 02:45:51;;;;;;;3.28;1.45;;;11.50;99.90;;;;;;5096551;28;20237;-76
2022/09/28 02:48:57;;;;;;;5.72;1.80;;;11.50;99.90;;;;;;5092638;28;20168;-76
2022/09/28 02:51:42;;;;;;;3.40;2.00;;;11.50;99.90;;;;;;5092096;28;20623;-76
2022/09/28 02:54:29;;;;;;;2.70;1.70;;;11.50;99.90;;;;;;5075406;28;20179;-76
2022/09/28 02:57:08;;;;;;;2.97;1.52;;;11.50;99.90;;;;;;5092124;28;20179;-76
2022/09/28 02:59:46;;;;;;;3.45;2.10;;;11.50;99.90;;;;;;5092036;28;20168;-76
2022/09/28 03:02:36;;;;;;;3.35;2.13;;;11.50;99.90;;;;;;5092024;28;20314;-76
2022/09/28 03:05:18;;;;;;;3.15;1.90;;;11.50;99.90;;;;;;5091990;28;20286;-76
2022/09/28 03:07:58;;;;;;;3.88;2.38;;;11.60;99.90;;;;;;5092067;28;20299;-75
2022/09/28 03:10:54;;;;;;;6.15;3.38;;;11.60;99.90;;;;;;5092928;28;20212;-74
2022/09/28 03:13:20;;;;;;;3.38;3.05;;;11.60;99.90;;;;;;5092053;28;20243;-75
2022/09/28 03:15:46;;;;;;;5.00;3.13;;;11.60;99.90;;;;;;5091792;28;20594;-75
2022/09/28 03:18:13;;;;;;;5.13;3.40;;;11.60;99.90;;;;;;5093058;28;20179;-75
2022/09/28 03:20:40;;;;;;;3.63;3.33;;;11.70;99.90;;;;;;5091956;28;20664;-75
2022/09/28 03:23:06;;;;;;;3.87;2.70;;;11.60;99.90;;;;;;5078784;28;20667;-75
2022/09/28 03:25:32;;;;;;;8.83;3.40;;;11.70;99.90;;;;;;5092779;28;20222;-75
2022/09/28 03:27:57;;;;;;;3.90;3.40;;;11.70;99.90;;;;;;5091238;28;20562;-75
2022/09/28 03:30:24;;;;;;;6.35;4.40;;;11.70;99.90;;;;;;5074681;28;20589;-76
2022/09/28 03:32:58;;;;;;;7.10;4.90;;;11.70;99.90;;;;;;5091454;28;20202;-76
2022/09/28 03:35:26;;;;;;;5.07;4.57;;;11.70;99.90;;;;;;5074807;28;20178;-76
2022/09/28 03:37:55;;;;;;;4.50;3.90;;;11.70;99.90;;;;;;5091260;28;20188;-77
2022/09/28 03:40:22;;;;;;;6.30;4.60;;;11.80;99.90;;;;;;5091238;28;20570;-76
2022/09/28 03:42:48;;;;;;;6.95;4.93;;;11.80;99.90;;;;;;5091121;28;20199;-76
2022/09/28 03:45:14;;;;;;;7.80;5.17;;;11.80;99.90;;;;;;5091243;28;20671;-76
2022/09/28 03:47:47;;;;;;;5.18;4.68;;;11.80;99.90;;;;;;5091117;28;20593;-76
2022/09/28 03:50:14;;;;;;;6.25;4.43;;;11.80;99.90;;;;;;5090877;28;20263;-75
2022/09/28 03:52:39;;;;;;;6.75;5.00;;;11.80;99.90;;;;;;5091090;28;20263;-75
2022/09/28 03:55:06;;;;;;;5.13;4.55;;;11.80;99.90;;;;;;5091201;28;20171;-75
2022/09/28 03:57:31;;;;;;;7.22;5.55;;;11.80;99.90;;;;;;5094728;28;20204;-75
2022/09/28 03:59:57;;;;;;;8.00;5.57;;;11.80;99.90;;;;;;5083193;28;20335;-76
2022/09/28 04:02:23;;;;;;;5.93;4.93;;;11.80;99.90;;;;;;5090843;28;20262;-76
2022/09/28 04:04:49;;;;;;;6.47;4.50;;;11.80;99.90;;;;;;5092186;28;20686;-76
2022/09/28 04:07:14;;;;;;;5.50;4.47;;;11.80;99.90;;;;;;5090801;28;20282;-76
2022/09/28 04:09:42;;;;;;;5.28;4.65;;;11.80;99.90;;;;;;5090754;28;20167;-76
2022/09/28 04:12:08;;;;;;;4.63;4.23;;;11.80;99.90;;;;;;5090731;28;20589;-76
2022/09/28 04:14:34;;;;;;;5.10;4.50;;;11.80;99.90;;;;;;5091354;28;20163;-76
2022/09/28 04:17:00;;;;;;;5.63;5.03;;;11.80;99.90;;;;;;5091798;28;20192;-76
2022/09/28 04:19:27;;;;;;;6.78;5.28;;;11.80;99.90;;;;;;5090467;28;20192;-75
2022/09/28 04:22:13;;;;;;;5.30;4.32;;;11.80;99.90;;;;;;5077529;28;20499;-75
2022/09/28 04:24:40;;;;;;;6.57;4.70;;;11.80;99.90;;;;;;5073597;28;20226;-75
2022/09/28 04:29:51;;;;;;;6.60;5.25;;;11.80;99.90;;;;;;5090298;28;20178;-75
2022/09/28 04:32:18;;;;;;;5.35;4.80;;;11.80;99.90;;;;;;5090442;28;20298;-75
2022/09/28 04:34:43;;;;;;;7.27;5.77;;;11.80;99.90;;;;;;5092026;28;20259;-75
2022/09/28 04:37:09;;;;;;;6.65;5.90;;;11.80;99.90;;;;;;5095291;28;20225;-75
2022/09/28 04:39:37;;;;;;;8.32;5.18;;;11.80;99.90;;;;;;5090643;28;20217;-75
2022/09/28 04:42:02;;;;;;;6.47;4.87;;;11.80;99.90;;;;;;5090305;28;20647;-75
2022/09/28 04:44:28;;;;;;;6.37;5.70;;;11.80;99.90;;;;;;5090368;28;21018;-75
2022/09/28 04:46:58;;;;;;;6.30;5.80;;;11.80;99.90;;;;;;5090182;28;20589;-75
2022/09/28 04:49:27;;;;;;;6.18;5.57;;;11.80;99.90;;;;;;5091484;28;20526;-76
2022/09/28 04:51:55;;;;;;;6.45;5.57;;;11.80;99.90;;;;;;5090164;28;20167;-75
2022/09/28 04:54:21;;;;;;;6.60;5.40;;;11.80;99.90;;;;;;5090112;28;20542;-75
2022/09/28 04:56:47;;;;;;;7.50;5.47;;;11.80;99.90;;;;;;5090120;28;20992;-75
2022/09/28 04:59:13;;;;;;;5.95;5.40;;;11.80;99.90;;;;;;5073009;28;20574;-75
2022/09/28 05:01:40;;;;;;;7.82;5.60;;;11.80;99.90;;;;;;5073134;28;20532;-75
2022/09/28 05:04:25;;;;;;;5.63;4.95;;;11.80;99.90;;;;;;5091337;28;20188;-75
2022/09/28 05:07:02;;;;;;;5.82;5.00;;;11.80;99.90;;;;;;5089946;28;20201;-74
2022/09/28 05:09:28;;;;;;;5.60;5.00;;;11.80;99.90;;;;;;5073021;28;20179;-74
2022/09/28 05:11:54;;;;;;;4.70;4.30;;;11.80;99.90;;;;;;5090370;28;20577;-75
2022/09/28 05:14:23;;;;;;;6.40;5.80;;;11.80;99.90;;;;;;5077990;28;20179;-75
2022/09/28 05:16:50;;;;;;;5.35;4.88;;;11.80;99.90;;;;;;5090085;28;20533;-76
2022/09/28 05:19:24;;;;;;;5.88;5.25;;;11.80;99.90;;;;;;5091185;28;20164;-76
2022/09/28 05:22:33;;;;;;;5.85;4.63;;;11.80;99.90;;;;;;5097425;28;20164;-75
2022/09/28 05:25:49;;;;;;;5.07;4.60;;;11.80;99.90;;;;;;5067558;28;20215;-75
2022/09/28 05:29:13;;;;;;;8.20;5.20;;;11.80;99.90;;;;;;5051181;28;20192;-75
2022/09/28 05:39:35;;;;;;;5.03;4.43;;;11.70;99.90;;;;;;4943334;28;20286;-75
2022/09/28 05:42:46;;;;;;;6.13;4.70;;;11.70;99.90;;;;;;4994957;28;20686;-75
2022/09/28 05:46:33;;;;;;;4.63;4.13;;;11.70;99.90;;;;;;4991551;28;20285;-75
2022/09/28 05:50:18;;;;;;;;;;;;;;;;;;;;;
2022/09/28 05:58:46;;;;;;;4.55;3.90;;;11.70;99.90;;;;;;5005752;28;20689;-76
2022/09/28 06:01:15;;;;;;;4.50;3.58;;;11.70;99.90;;;;;;4957155;29;20199;-76
2022/09/28 06:03:41;;;;;;;5.15;4.03;;;11.70;99.90;;;;;;4939344;29;20564;-76
2022/09/28 06:06:07;;;;;;;5.90;3.90;;;11.70;99.90;;;;;;4994640;28;20324;-74
2022/09/28 06:08:33;;;;;;;4.17;3.77;;;11.70;99.90;;;;;;5093787;28;20168;-75
2022/09/28 06:11:25;;;;;;;4.95;4.00;;;11.70;99.90;;;;;;5094390;28;20597;-75
2022/09/28 06:14:20;;;;;;;4.60;3.80;;;11.70;99.90;;;;;;5078344;28;20662;-75
2022/09/28 06:16:59;;;;;;;3.33;3.03;;;11.70;99.90;;;;;;5078563;28;20184;-76
2022/09/28 06:19:43;;;;;;;4.28;3.88;;;11.80;99.90;;;;;;5077511;28;20496;-73
2022/09/28 06:22:27;;;;;;;3.92;3.40;;;11.80;99.90;;;;;;5095262;28;20225;-73
2022/09/28 06:25:02;;;;;;;2.72;2.38;;;11.80;99.90;;;;;;5093247;28;20234;-74
2022/09/28 06:27:28;;;;;;;4.45;4.05;;;11.90;99.90;;;;;;5080856;28;20701;-74
2022/09/28 06:29:54;;;;;;;5.60;4.30;;;11.90;99.90;;;;;;5093659;28;20247;-73
2022/09/28 06:32:20;;;;;;;5.37;3.40;;;11.90;99.90;;;;;;5094165;28;20193;-74
2022/09/28 06:34:48;;;;;;;4.97;4.47;;;11.90;99.90;;;;;;5092972;28;20578;-74
2022/09/28 06:37:14;;;;;;;4.13;3.43;;;11.90;99.90;;;;;;5092849;28;20183;-73
2022/09/28 06:39:39;;;;;;;4.73;4.23;;;11.90;99.90;;;;;;5075956;28;20199;-73
2022/09/28 06:42:05;;;;;;;5.20;4.10;;;11.90;99.90;;;;;;5093528;28;20164;-74
2022/09/28 06:44:50;;;;;;;4.63;4.22;;;11.90;99.90;;;;;;5094327;28;20609;-74
2022/09/28 06:47:37;;;;;;;4.85;4.35;;;11.90;99.90;;;;;;5093947;28;20677;-74
2022/09/28 06:50:11;;;;;;;4.55;3.42;;;12.00;99.90;;;;;;5092720;28;20520;-74
2022/09/28 06:53:09;;;;;;;3.85;3.45;;;12.00;99.90;;;;;;5092798;28;20655;-73
2022/09/28 06:55:56;;;;;;;4.50;3.30;;;12.00;99.90;;;;;;5092785;28;20278;-73
2022/09/28 06:58:22;;;;;;;4.15;3.20;;;12.00;99.90;;;;;;5092478;28;20635;-74
2022/09/28 07:00:50;;;;;;;3.33;3.00;;;12.00;99.90;;;;;;5093631;28;20240;-74
2022/09/28 07:03:20;;;;;;;3.92;3.20;;;12.00;99.90;;;;;;5092930;28;20205;-73
2022/09/28 07:06:04;;;;;;;3.58;3.13;;;12.10;99.90;;;;;;5093711;28;20203;-73
2022/09/28 07:09:05;;;;;;;3.63;2.75;;;12.10;99.90;;;;;;5076067;28;20583;-75
2022/09/28 07:11:40;;;;;;;4.97;3.15;;;12.10;99.90;;;;;;5092278;28;20163;-76
2022/09/28 07:14:24;;;;;;;5.22;3.10;;;12.10;99.90;;;;;;5092197;28;20574;-76
2022/09/28 07:16:49;;;;;;;5.30;3.03;;;12.10;99.90;;;;;;5091970;28;20195;-75
2022/09/28 07:19:15;;;;;;;3.08;2.65;;;12.10;99.90;;;;;;5091929;28;20962;-75
2022/09/28 07:21:42;;;;;;;2.95;2.22;;;12.10;99.90;;;;;;5092030;28;20156;-76
2022/09/28 07:24:11;;;;;;;3.23;2.90;;;12.20;99.90;;;;;;5092284;28;20711;-76
2022/09/28 07:26:37;;;;;;;2.90;2.58;;;12.20;99.90;;;;;;5076346;28;20438;-76
2022/09/28 07:29:34;;;;;;;4.43;2.40;;;12.20;99.90;;;;;;5084809;28;20176;-76
2022/09/28 07:32:20;;;;;;;2.45;1.92;;;12.20;99.90;;;;;;5093671;28;20259;-76
2022/09/28 07:34:59;;;;;;;6.10;2.45;;;12.30;99.90;;;;;;5092533;28;20164;-76
2022/09/28 07:37:41;;;;;;;4.22;2.13;;;12.30;99.90;;;;;;5075161;28;20231;-76
2022/09/28 07:42:52;;;;;;;4.35;2.90;;;12.40;99.90;;;;;;5092119;28;20648;-75
2022/09/28 07:45:19;;;;;;;3.70;2.60;;;12.50;99.90;;;;;;5092944;28;20210;-75
2022/09/28 07:47:46;;;;;;;2.70;2.40;;;12.60;99.90;;;;;;5075792;28;20253;-76
2022/09/28 07:50:31;;;;;;;2.75;1.98;;;12.70;99.90;;;;;;5092678;28;20171;-76
2022/09/28 07:53:02;;;;;;;3.40;2.00;;;12.80;99.90;;;;;;5092531;28;20236;-76
2022/09/28 07:55:33;;;;;;;2.60;2.30;;;12.90;99.90;;;;;;5075210;28;20172;-76
2022/09/28 07:58:19;;;;;;;4.87;2.60;;;13.10;99.90;;;;;;5092414;28;20250;-76
2022/09/28 08:01:09;;;;;;;4.27;3.00;;;13.70;99.90;;;;;;5091760;28;20593;-77
2022/09/28 08:03:36;;;;;;;6.43;2.37;;;14.20;99.90;;;;;;5057927;28;20669;-76
2022/09/28 08:06:08;;;;;;;3.57;2.33;;;14.50;99.90;;;;;;5090929;28;20629;-76
2022/09/28 08:08:34;;;;;;;2.87;2.27;;;15.00;99.90;;;;;;5091057;28;20566;-77
2022/09/28 08:11:00;;;;;;;3.17;1.97;;;15.70;99.90;;;;;;5090610;28;20570;-76
2022/09/28 08:13:46;;;;;;;1.93;1.40;;;16.40;99.90;;;;;;5092178;28;20566;-76
2022/09/28 08:16:26;;;;;;;7.70;1.77;;;16.80;99.90;;;;;;5090709;28;20997;-76
2022/09/28 08:19:07;;;;;;;3.30;2.00;;;17.00;99.90;;;;;;5093697;28;20935;-76
2022/09/28 08:21:45;;;;;;;3.07;1.80;;;17.00;99.90;;;;;;5073665;28;20676;-76
2022/09/28 08:24:15;;;;;;;4.07;2.00;;;16.90;99.90;;;;;;5074106;28;20585;-76
2022/09/28 08:26:42;;;;;;;2.27;2.07;;;16.90;99.90;;;;;;5090832;28;20625;-76
2022/09/28 08:29:09;;;;;;;2.73;1.60;;;16.70;99.90;;;;;;5090914;28;20581;-76
2022/09/28 08:31:50;;;;;;;2.27;1.50;;;16.70;99.90;;;;;;5090896;28;20616;-76
2022/09/28 08:34:39;;;;;;;2.27;1.50;;;16.70;99.90;;;;;;5091990;28;20578;-76
2022/09/28 08:37:29;;;;;;;2.90;1.70;;;16.60;99.90;;;;;;5060422;28;20612;-76
2022/09/28 08:40:05;;;;;;;2.73;1.50;;;16.50;99.90;;;;;;5091711;28;21022;-76
2022/09/28 08:42:44;;;;;;;1.97;1.47;;;16.40;99.90;;;;;;5090414;28;20627;-76
2022/09/28 08:45:42;;;;;;;3.90;1.73;;;16.40;99.90;;;;;;5091565;28;20644;-77
2022/09/28 08:48:47;;;;;;;5.83;1.47;;;16.40;99.90;;;;;;5090541;28;20601;-76
2022/09/28 08:51:30;;;;;;;2.73;1.90;;;16.40;99.90;;;;;;5090160;28;20565;-76
2022/09/28 08:54:08;;;;;;;3.20;1.40;;;16.50;99.90;;;;;;5090446;28;20929;-76
2022/09/28 08:56:51;;;;;;;2.00;1.47;;;16.60;99.90;;;;;;5079628;28;20602;-76
2022/09/28 08:59:21;;;;;;;2.10;1.30;;;16.80;99.90;;;;;;5089769;28;20581;-77
2022/09/28 09:02:03;;;;;;;2.80;1.20;;;16.80;99.90;;;;;;5090269;28;20573;-76
2022/09/28 09:04:32;;;;;;;2.40;1.10;;;16.80;99.90;;;;;;5107304;28;20584;-77
2022/09/28 09:07:23;;;;;;;3.17;1.10;;;16.80;99.90;;;;;;5089877;28;20609;-77
2022/09/28 09:10:07;;;;;;;3.50;1.40;;;16.90;99.90;;;;;;5074219;28;20677;-76
2022/09/28 09:12:59;;;;;;;1.50;0.90;;;17.10;99.90;;;;;;5073477;28;20570;-77
2022/09/28 09:15:39;;;;;;;2.30;1.43;;;17.20;99.90;;;;;;5090293;28;20593;-76
2022/09/28 09:18:35;;;;;;;6.47;1.30;;;17.20;99.90;;;;;;5073129;28;20664;-76
2022/09/28 09:21:42;;;;;;;2.07;1.10;;;17.20;99.90;;;;;;5089699;28;20581;-76
2022/09/28 09:24:30;;;;;;;2.37;0.77;;;17.20;99.90;;;;;;5090003;28;20588;-75
2022/09/28 09:27:35;;;;;;;2.60;1.17;;;17.20;99.90;;;;;;5092574;28;20613;-76
2022/09/28 09:30:13;;;;;;;4.60;1.40;;;17.30;99.90;;;;;;5076913;28;20581;-76
2022/09/28 09:33:03;;;;;;;2.70;1.10;;;17.40;99.90;;;;;;5094290;28;20577;-75
2022/09/28 09:35:46;;;;;;;2.67;1.17;;;17.50;99.90;;;;;;5077832;28;21171;-76
2022/09/28 09:38:56;;;;;;;3.40;0.90;;;17.60;99.90;;;;;;5095251;28;20570;-77
2022/09/28 09:42:07;;;;;;;3.10;0.97;;;17.60;99.90;;;;;;5093664;28;20577;-76
2022/09/28 09:45:32;;;;;;;2.10;1.00;;;17.50;99.90;;;;;;5078448;28;21057;-76
2022/09/28 09:48:38;;;;;;;2.80;0.90;;;17.40;99.90;;;;;;5092079;28;20593;-76
2022/09/28 09:51:32;;;;;;;5.20;0.90;;;17.40;99.90;;;;;;5094562;28;20565;-76
2022/09/28 09:54:05;;;;;;;2.30;1.00;;;17.30;99.90;;;;;;5093570;28;20565;-77
2022/09/28 09:56:39;;;;;;;2.53;0.83;;;17.20;99.90;;;;;;5094648;28;20647;-76
2022/09/28 09:59:32;;;;;;;2.23;0.90;;;17.20;99.90;;;;;;5083422;28;20948;-76
2022/09/28 10:02:26;;;;;;;4.10;1.33;;;17.40;99.90;;;;;;5076398;28;20619;-76
2022/09/28 10:05:26;;;;;;;3.33;1.20;;;17.40;99.90;;;;;;5093509;28;20704;-77
2022/09/28 10:08:00;;;;;;;3.63;1.20;;;17.40;99.90;;;;;;5076699;28;21032;-76
2022/09/28 10:10:52;;;;;;;3.10;1.20;;;17.50;99.90;;;;;;5097088;28;20589;-74
2022/09/28 10:13:19;;;;;;;2.43;1.57;;;17.60;99.90;;;;;;5093214;28;20565;-76
2022/09/28 10:15:46;;;;;;;3.80;2.00;;;17.60;99.90;;;;;;5093269;28;21283;-76
2022/09/28 10:18:26;;;;;;;5.70;3.60;;;17.60;99.90;;;;;;5093298;28;20934;-76
2022/09/28 10:21:15;;;;;;;3.23;2.00;;;17.70;99.90;;;;;;5093118;28;21006;-76
2022/09/28 10:23:57;;;;;;;3.53;1.90;;;17.60;99.90;;;;;;5093174;28;20589;-75
2022/09/28 10:26:36;;;;;;;5.23;2.60;;;17.50;99.90;;;;;;5092956;28;20637;-76
2022/09/28 10:29:11;;;;;;;2.90;1.47;;;17.50;99.90;;;;;;5092971;28;20592;-76
2022/09/28 10:31:36;;;;;;;4.40;2.03;;;17.40;99.90;;;;;;5092884;28;20592;-76
2022/09/28 10:34:07;;;;;;;3.70;1.10;;;17.40;99.90;;;;;;5092772;28;20650;-77
2022/09/28 10:37:02;;;;;;;3.40;1.67;;;17.30;99.90;;;;;;5092718;28;20960;-76
2022/09/28 10:39:52;;;;;;;2.30;1.40;;;17.30;99.90;;;;;;5077810;28;20585;-76
2022/09/28 10:42:38;;;;;;;2.30;1.60;;;17.50;99.90;;;;;;5092741;28;20677;-76
2022/09/28 10:45:24;;;;;;;2.57;1.40;;;17.80;99.90;;;;;;5092651;28;20651;-76
2022/09/28 10:47:50;;;;;;;1.87;1.10;;;18.10;99.90;;;;;;5097532;28;20598;-76
2022/09/28 10:50:25;;;;;;;2.80;1.10;;;18.40;99.90;;;;;;5092523;28;20961;-76
2022/09/28 10:53:18;;;;;;;2.30;1.30;;;18.70;99.90;;;;;;5092361;28;20578;-76
2022/09/28 10:56:22;;;;;;;2.30;1.03;;;18.90;99.90;;;;;;5092476;28;20666;-76
2022/09/28 10:58:54;;;;;;;2.20;0.70;;;19.10;99.90;;;;;;5092535;28;20727;-76
2022/09/28 11:01:32;;;;;;;2.33;0.80;;;19.10;99.90;;;;;;5092133;28;20613;-76
2022/09/28 11:04:09;;;;;;;2.27;0.53;;;19.10;99.90;;;;;;5092279;28;20578;-76
2022/09/28 11:06:40;;;;;;;1.60;0.60;;;19.00;99.90;;;;;;5092008;28;20692;-76
2022/09/28 11:09:29;;;;;;;1.50;0.70;;;19.00;99.90;;;;;;5092162;28;20578;-76
2022/09/28 11:11:58;;;;;;;2.83;0.77;;;18.90;99.90;;;;;;5092106;28;20566;-76
2022/09/28 11:14:40;;;;;;;2.33;1.47;;;18.80;99.90;;;;;;5092068;28;20667;-76
2022/09/28 11:17:28;;;;;;;4.90;2.47;;;18.70;99.90;;;;;;5075616;28;20598;-76
2022/09/28 11:19:57;;;;;;;2.83;1.53;;;18.50;99.90;;;;;;5091791;28;20596;-76
2022/09/28 11:22:40;;;;;;;2.80;0.93;;;18.40;99.90;;;;;;5091672;28;21141;-76
2022/09/28 11:25:15;;;;;;;3.33;1.50;;;18.20;99.90;;;;;;5096183;28;20686;-76
2022/09/28 11:27:53;;;;;;;5.13;1.20;;;18.10;99.90;;;;;;5091747;28;20612;-76
2022/09/28 11:30:41;;;;;;;4.63;1.50;;;18.00;99.90;;;;;;5092848;28;20618;-77
2022/09/28 11:33:33;;;;;;;2.40;1.40;;;17.90;99.90;;;;;;5091676;28;20620;-76
2022/09/28 11:36:25;;;;;;;3.43;1.27;;;17.90;99.90;;;;;;5092751;28;20596;-76
2022/09/28 11:39:10;;;;;;;4.17;2.00;;;17.90;99.90;;;;;;5092889;28;20573;-77
2022/09/28 11:41:57;;;;;;;2.53;1.37;;;18.00;99.90;;;;;;5091653;28;20717;-76
2022/09/28 11:44:45;;;;;;;2.80;1.13;;;18.20;99.90;;;;;;5091396;28;20586;-77
2022/09/28 11:47:32;;;;;;;2.40;1.37;;;18.30;99.90;;;;;;5074574;28;20612;-76
2022/09/28 11:50:02;;;;;;;3.50;2.20;;;18.40;99.90;;;;;;5090981;28;20596;-76
2022/09/28 11:52:54;;;;;;;2.13;1.23;;;18.50;99.90;;;;;;5074089;28;20608;-77
2022/09/28 11:55:50;;;;;;;2.00;1.20;;;18.60;99.90;;;;;;5090867;28;20593;-75
2022/09/28 11:58:21;;;;;;;4.60;2.90;;;18.60;99.90;;;;;;5074624;28;20568;-76
2022/09/28 12:01:12;;;;;;;6.10;2.30;;;18.60;99.90;;;;;;5074524;28;20586;-76
2022/09/28 12:04:18;;;;;;;4.23;2.57;;;18.40;99.90;;;;;;5078501;28;20610;-76
2022/09/28 12:07:06;;;;;;;3.23;1.87;;;18.20;99.90;;;;;;5057142;28;21299;-75
2022/09/28 12:09:53;;;;;;;2.60;1.10;;;18.00;99.90;;;;;;5057012;28;20971;-75
2022/09/28 12:12:29;;;;;;;3.50;1.87;;;17.90;99.90;;;;;;5074144;28;20566;-76
2022/09/28 12:15:03;;;;;;;3.37;1.57;;;17.80;99.90;;;;;;5057988;28;20573;-77
2022/09/28 12:17:38;;;;;;;3.10;1.33;;;17.80;99.90;;;;;;5092148;28;21023;-77
2022/09/28 12:20:17;;;;;;;3.97;1.20;;;17.80;99.90;;;;;;5090899;28;20565;-77
2022/09/28 12:22:53;;;;;;;4.40;1.30;;;17.80;99.90;;;;;;5092567;28;21291;-77
2022/09/28 12:25:21;;;;;;;2.63;1.30;;;17.80;99.90;;;;;;5090768;28;21187;-77
2022/09/28 12:27:54;;;;;;;2.30;1.00;;;17.80;99.90;;;;;;5094028;28;20974;-77
2022/09/28 12:30:24;;;;;;;4.23;1.00;;;17.70;99.90;;;;;;5091766;28;20605;-77
2022/09/28 12:33:11;;;;;;;2.60;1.13;;;17.70;99.90;;;;;;5095232;28;20576;-77
2022/09/28 12:35:58;;;;;;;2.70;1.40;;;17.70;99.90;;;;;;5094513;28;20921;-77
2022/09/28 12:38:39;;;;;;;6.33;1.87;;;17.70;99.90;;;;;;5093406;28;20578;-77
2022/09/28 12:41:43;;;;;;;3.90;1.10;;;17.70;99.90;;;;;;5094147;28;20591;-77
2022/09/28 12:44:23;;;;;;;3.63;1.37;;;17.60;99.90;;;;;;5088526;28;21149;-77
2022/09/28 12:47:04;;;;;;;2.00;1.40;;;17.60;99.90;;;;;;5074007;28;20623;-77
2022/09/28 12:49:52;;;;;;;5.37;1.90;;;17.60;99.90;;;;;;5092056;28;20926;-77
2022/09/28 12:52:49;;;;;;;3.63;1.50;;;17.60;99.90;;;;;;5090535;28;20570;-77
2022/09/28 12:55:25;;;;;;;4.80;2.90;;;17.60;99.90;;;;;;5090360;28;20608;-77
2022/09/28 12:58:07;;;;;;;6.00;3.23;;;17.70;99.90;;;;;;5091592;28;20601;-77
2022/09/28 13:01:00;;;;;;;4.37;2.40;;;17.70;99.90;;;;;;5089484;28;20585;-77
2022/09/28 13:04:16;;;;;;;3.63;1.60;;;17.80;99.90;;;;;;5090326;28;20642;-77
2022/09/28 13:06:53;;;;;;;5.77;2.77;;;17.90;99.90;;;;;;5090162;28;20636;-77
2022/09/28 13:09:25;;;;;;;3.90;2.10;;;18.00;99.90;;;;;;5090671;28;20619;-77
2022/09/28 13:12:21;;;;;;;2.57;1.47;;;18.10;99.90;;;;;;5090094;28;20982;-77
2022/09/28 13:14:56;;;;;;;4.00;2.17;;;18.10;99.90;;;;;;5090530;28;20576;-77
2022/09/28 13:17:44;;;;;;;2.50;1.30;;;18.20;99.90;;;;;;5094352;28;20610;-75
2022/09/28 13:20:23;;;;;;;3.00;1.60;;;18.20;99.90;;;;;;5091892;28;21003;-76
2022/09/28 13:23:05;;;;;;;5.83;1.17;;;18.30;99.90;;;;;;5091396;28;20951;-77
2022/09/28 13:25:34;;;;;;;3.60;1.50;;;18.40;99.90;;;;;;5091417;28;20624;-77
2022/09/28 13:28:03;;;;;;;2.60;1.60;;;18.50;99.90;;;;;;5091368;28;20589;-77
2022/09/28 13:30:30;;;;;;;3.07;1.30;;;18.60;99.90;;;;;;5091011;28;20561;-77
2022/09/28 13:32:59;;;;;;;4.30;2.03;;;18.60;99.90;;;;;;5091250;28;20643;-77
2022/09/28 13:35:26;;;;;;;3.33;1.70;;;18.60;99.90;;;;;;5090011;28;20569;-77
2022/09/28 13:38:16;;;;;;;2.83;1.67;;;18.50;99.90;;;;;;5091072;28;20688;-77
2022/09/28 13:41:04;;;;;;;3.53;1.77;;;18.40;99.90;;;;;;5090911;28;20594;-77
2022/09/28 13:43:38;;;;;;;3.10;1.80;;;18.40;99.90;;;;;;5091194;28;20569;-76
2022/09/28 13:46:34;;;;;;;5.67;2.70;;;18.30;99.90;;;;;;5090051;28;20632;-77
2022/09/28 13:49:23;;;;;;;2.63;1.37;;;18.20;99.90;;;;;;5091329;28;20590;-77
2022/09/28 13:51:55;;;;;;;3.67;1.40;;;18.10;99.90;;;;;;5090996;28;20643;-76
2022/09/28 13:54:30;;;;;;;5.20;3.50;;;18.00;99.90;;;;;;5094878;28;20661;-77
2022/09/28 13:57:24;;;;;;;4.83;2.83;;;17.90;99.90;;;;;;5089708;28;20650;-76
2022/09/28 14:00:01;;;;;;;2.53;1.90;;;17.80;99.90;;;;;;5090721;28;20668;-77
2022/09/28 14:03:06;;;;;;;3.13;1.50;;;17.80;99.90;;;;;;5090775;28;20588;-77
2022/09/28 14:06:03;;;;;;;2.60;1.60;;;17.80;99.90;;;;;;5068151;28;20668;-77
2022/09/28 14:08:37;;;;;;;4.13;1.63;;;17.80;99.90;;;;;;5089607;28;20693;-77